createdAt,value
2022-12-09T00:02:08.625Z,4.85
2022-12-09T00:04:37.098Z,4.75
2022-12-09T00:07:06.193Z,4.78
2022-12-09T00:09:34.671Z,4.80
2022-12-09T00:12:03.162Z,4.88
2022-12-09T00:14:32.790Z,5.07
2022-12-09T00:17:01.303Z,4.80
2022-12-09T00:19:29.899Z,4.93
2022-12-09T00:21:58.501Z,4.81
2022-12-09T00:24:26.682Z,4.86
2022-12-09T00:26:55.210Z,4.92
2022-12-09T00:29:23.532Z,4.93
2022-12-09T00:31:53.425Z,5.05
2022-12-09T00:34:21.580Z,4.77
2022-12-09T00:36:50.163Z,4.62
2022-12-09T00:39:18.830Z,4.80
2022-12-09T00:41:49.254Z,4.88
2022-12-09T00:44:17.429Z,4.87
2022-12-09T00:46:45.982Z,4.81
2022-12-09T00:49:15.800Z,5.18
2022-12-09T00:51:45.505Z,4.92
2022-12-09T00:54:13.754Z,4.86
2022-12-09T00:56:42.195Z,4.94
2022-12-09T00:59:10.255Z,4.86
2022-12-09T01:01:38.772Z,4.98
2022-12-09T01:04:08.791Z,5.07
2022-12-09T01:06:38.998Z,5.26
2022-12-09T01:09:07.415Z,4.98
2022-12-09T01:11:36.705Z,5.09
2022-12-09T01:14:05.405Z,5.03
2022-12-09T01:16:34.988Z,5.07
2022-12-09T01:19:05.101Z,5.13
2022-12-09T01:21:34.956Z,5.15
2022-12-09T01:24:08.095Z,5.35
2022-12-09T01:26:36.982Z,4.88
2022-12-09T01:29:05.822Z,4.95
2022-12-09T01:31:34.446Z,4.73
2022-12-09T01:34:02.711Z,4.80
2022-12-09T01:36:31.744Z,4.89
2022-12-09T01:39:01.414Z,5.01
2022-12-09T01:41:31.440Z,4.96
2022-12-09T01:44:11.096Z,5.23
2022-12-09T01:46:40.069Z,4.66
2022-12-09T01:49:09.867Z,4.83
2022-12-09T01:51:38.557Z,4.57
2022-12-09T01:54:06.899Z,4.56
2022-12-09T01:56:38.133Z,4.81
2022-12-09T01:59:08.285Z,4.59
2022-12-09T02:01:37.470Z,4.47
2022-12-09T02:04:06.950Z,4.53
2022-12-09T02:06:37.898Z,4.63
2022-12-09T02:09:06.690Z,4.41
2022-12-09T02:11:44.705Z,4.85
2022-12-09T02:14:18.201Z,4.72
2022-12-09T02:16:54.759Z,4.81
2022-12-09T02:19:31.706Z,4.83
2022-12-09T02:22:01.262Z,4.56
2022-12-09T02:24:36.229Z,4.76
2022-12-09T02:27:13.491Z,4.81
2022-12-09T02:29:52.324Z,4.76
2022-12-09T02:32:41.952Z,4.97
2022-12-09T02:35:14.149Z,4.88
2022-12-09T02:37:47.452Z,4.68
2022-12-09T02:40:17.963Z,4.52
2022-12-09T02:42:47.247Z,4.33
2022-12-09T02:45:16.918Z,4.47
2022-12-09T02:47:49.699Z,4.75
2022-12-09T02:50:22.864Z,4.72
2022-12-09T02:52:53.362Z,4.54
2022-12-09T02:55:22.569Z,4.48
2022-12-09T02:57:55.091Z,4.65
2022-12-09T03:00:23.575Z,4.39
2022-12-09T03:02:55.147Z,4.63
2022-12-09T03:05:25.320Z,5.21
2022-12-09T03:08:00.363Z,4.83
2022-12-09T03:10:32.730Z,4.83
2022-12-09T03:13:05.100Z,4.71
2022-12-09T03:15:36.093Z,4.73
2022-12-09T03:18:08.660Z,4.77
2022-12-09T03:20:40.866Z,4.83
2022-12-09T03:23:10.508Z,4.81
2022-12-09T03:25:41.179Z,4.81
2022-12-09T03:28:12.819Z,4.83
2022-12-09T03:30:41.013Z,5.38
2022-12-09T03:33:10.396Z,4.74
2022-12-09T03:35:42.606Z,4.92
2022-12-09T03:38:12.857Z,4.76
2022-12-09T03:40:41.997Z,4.69
2022-12-09T03:43:14.228Z,4.90
2022-12-09T03:45:43.282Z,4.76
2022-12-09T03:48:12.590Z,4.92
2022-12-09T03:50:46.725Z,5.16
2022-12-09T03:53:19.646Z,5.12
2022-12-09T03:55:52.674Z,5.18
2022-12-09T03:58:21.384Z,4.74
2022-12-09T04:00:50.300Z,4.90
2022-12-09T04:03:19.783Z,4.84
2022-12-09T04:05:49.404Z,4.95
2022-12-09T04:08:18.284Z,4.77
2022-12-09T04:10:46.976Z,4.67
2022-12-09T04:13:15.576Z,4.58
2022-12-09T04:15:43.858Z,4.65
2022-12-09T04:18:12.487Z,4.57
2022-12-09T04:20:41.148Z,4.61
2022-12-09T04:23:11.273Z,4.94
2022-12-09T04:25:39.444Z,4.66
2022-12-09T04:28:08.106Z,4.65
2022-12-09T04:30:36.692Z,4.52
2022-12-09T04:33:05.321Z,4.49
2022-12-09T04:35:33.418Z,4.40
2022-12-09T04:38:01.971Z,4.36
2022-12-09T04:40:31.868Z,4.64
2022-12-09T04:43:00.472Z,4.33
2022-12-09T04:45:29.852Z,4.65
2022-12-09T04:47:59.593Z,4.56
2022-12-09T04:50:28.138Z,4.45
2022-12-09T04:52:56.685Z,4.34
2022-12-09T04:55:24.844Z,4.22
2022-12-09T04:57:54.841Z,4.55
2022-12-09T05:00:23.675Z,4.36
2022-12-09T05:02:52.188Z,4.21
2022-12-09T05:05:20.884Z,4.14
2022-12-09T05:07:50.426Z,4.12
2022-12-09T05:10:19.353Z,4.11
2022-12-09T05:12:48.070Z,4.11
2022-12-09T05:15:17.951Z,4.37
2022-12-09T05:17:46.835Z,4.03
2022-12-09T05:20:15.936Z,4.09
2022-12-09T05:22:44.630Z,4.01
2022-12-09T05:25:13.289Z,4.04
2022-12-09T05:27:42.291Z,3.76
2022-12-09T05:30:11.967Z,3.93
2022-12-09T05:32:42.260Z,4.15
2022-12-09T05:35:11.509Z,3.78
2022-12-09T05:37:40.122Z,3.66
2022-12-09T05:40:10.210Z,3.90
2022-12-09T05:42:41.669Z,3.51
2022-12-09T05:45:12.441Z,3.62
2022-12-09T05:47:43.305Z,3.80
2022-12-09T05:50:12.556Z,3.44
2022-12-09T05:52:42.113Z,3.23
2022-12-09T05:55:11.899Z,3.43
2022-12-09T05:57:40.462Z,3.16
2022-12-09T06:00:10.749Z,3.27
2022-12-09T06:02:39.959Z,3.00
2022-12-09T06:05:11.078Z,3.29
2022-12-09T06:07:39.771Z,2.99
2022-12-09T06:10:10.240Z,3.21
2022-12-09T06:12:39.211Z,3.04
2022-12-09T06:15:10.534Z,3.21
2022-12-09T06:17:40.262Z,3.14
2022-12-09T06:20:10.997Z,3.41
2022-12-09T06:22:39.656Z,3.08
2022-12-09T06:25:08.294Z,3.25
2022-12-09T06:27:37.298Z,3.12
2022-12-09T06:30:06.540Z,3.19
2022-12-09T06:32:35.912Z,3.13
2022-12-09T06:35:05.157Z,3.19
2022-12-09T06:37:35.543Z,3.47
2022-12-09T06:40:04.075Z,3.15
2022-12-09T06:42:32.670Z,3.15
2022-12-09T06:45:01.180Z,3.16
2022-12-09T06:47:29.774Z,3.14
2022-12-09T06:50:06.712Z,3.09
2022-12-09T06:52:38.295Z,3.49
2022-12-09T06:55:07.901Z,3.36
2022-12-09T06:57:37.530Z,3.28
2022-12-09T07:00:07.774Z,3.64
2022-12-09T07:02:37.317Z,3.19
2022-12-09T07:05:08.237Z,3.47
2022-12-09T07:07:38.797Z,3.75
2022-12-09T07:10:10.531Z,3.76
2022-12-09T07:12:39.564Z,3.51
2022-12-09T07:15:09.323Z,3.73
2022-12-09T07:17:39.153Z,3.67
2022-12-09T07:20:09.337Z,3.80
2022-12-09T07:22:39.608Z,4.01
2022-12-09T07:25:08.867Z,3.86
2022-12-09T07:27:38.075Z,3.92
2022-12-09T07:30:10.317Z,4.44
2022-12-09T07:32:39.308Z,4.10
2022-12-09T07:35:08.757Z,4.31
2022-12-09T07:37:37.464Z,4.23
2022-12-09T07:40:08.665Z,4.71
2022-12-09T07:42:37.290Z,4.33
2022-12-09T07:45:06.959Z,4.52
2022-12-09T07:47:36.694Z,4.43
2022-12-09T07:50:06.999Z,4.47
2022-12-09T07:52:36.364Z,4.47
2022-12-09T07:55:07.810Z,4.52
2022-12-09T07:57:38.438Z,4.51
2022-12-09T08:00:08.672Z,4.86
2022-12-09T08:02:37.314Z,4.66
2022-12-09T08:05:07.809Z,4.78
2022-12-09T08:07:43.715Z,4.69
2022-12-09T08:10:14.130Z,4.96
2022-12-09T08:12:43.098Z,4.67
2022-12-09T08:15:13.204Z,5.04
2022-12-09T08:17:42.012Z,5.12
2022-12-09T08:20:11.534Z,5.40
2022-12-09T08:22:40.701Z,5.37
2022-12-09T08:25:10.046Z,5.46
2022-12-09T08:27:40.415Z,5.76
2022-12-09T08:30:10.791Z,5.70
2022-12-09T08:32:39.997Z,5.34
2022-12-09T08:35:15.210Z,5.36
2022-12-09T08:37:44.434Z,5.16
2022-12-09T08:40:14.306Z,5.28
2022-12-09T08:42:44.675Z,5.65
2022-12-09T08:45:13.185Z,5.43
2022-12-09T08:47:45.166Z,5.57
2022-12-09T08:50:14.490Z,5.53
2022-12-09T08:52:43.716Z,5.44
2022-12-09T08:55:12.142Z,5.39
2022-12-09T08:57:41.006Z,5.51
2022-12-09T09:00:12.295Z,5.95
2022-12-09T09:02:41.369Z,5.54
2022-12-09T09:05:10.586Z,5.48
2022-12-09T09:07:39.719Z,5.40
2022-12-09T09:10:10.208Z,5.63
2022-12-09T09:12:43.225Z,5.49
2022-12-09T09:15:14.743Z,5.82
2022-12-09T09:17:49.822Z,5.51
2022-12-09T09:20:20.061Z,5.57
2022-12-09T09:22:49.165Z,5.45
2022-12-09T09:25:18.456Z,5.67
2022-12-09T09:27:47.163Z,5.77
2022-12-09T09:30:17.151Z,6.20
2022-12-09T09:32:46.171Z,6.13
2022-12-09T09:35:14.723Z,6.25
2022-12-09T09:37:43.849Z,6.50
2022-12-09T09:40:13.292Z,6.89
2022-12-09T09:42:47.171Z,7.14
2022-12-09T09:45:20.632Z,7.16
2022-12-09T09:47:52.805Z,7.24
2022-12-09T09:50:28.489Z,7.62
2022-12-09T09:52:57.669Z,7.37
2022-12-09T09:55:33.221Z,7.83
2022-12-09T09:58:07.956Z,7.54
2022-12-09T10:00:43.501Z,7.50
2022-12-09T10:03:15.549Z,7.45
2022-12-09T10:05:50.905Z,7.68
2022-12-09T10:08:28.030Z,8.12
2022-12-09T10:11:04.008Z,8.19
2022-12-09T10:13:45.479Z,8.24
2022-12-09T10:16:18.998Z,8.08
2022-12-09T10:19:08.197Z,8.03
2022-12-09T10:21:42.346Z,7.77
2022-12-09T10:24:21.369Z,8.06
2022-12-09T10:27:00.097Z,7.99
2022-12-09T10:29:44.646Z,8.08
2022-12-09T10:32:19.619Z,8.05
2022-12-09T10:34:48.711Z,7.65
2022-12-09T10:37:25.853Z,8.13
2022-12-09T10:39:58.773Z,8.11
2022-12-09T10:42:45.564Z,8.07
2022-12-09T10:45:14.463Z,8.09
2022-12-09T10:47:50.918Z,8.49
2022-12-09T10:50:31.664Z,8.43
2022-12-09T10:53:06.225Z,8.36
2022-12-09T10:55:38.877Z,8.22
2022-12-09T10:58:21.156Z,8.31
2022-12-09T11:01:11.915Z,8.24
2022-12-09T11:03:43.344Z,7.64
2022-12-09T11:06:27.837Z,7.60
2022-12-09T11:09:00.095Z,7.28
2022-12-09T11:11:45.422Z,7.71
2022-12-09T11:14:24.819Z,7.31
2022-12-09T11:16:55.447Z,6.89
2022-12-09T11:19:33.279Z,7.08
2022-12-09T11:22:38.309Z,6.99
2022-12-09T11:25:27.215Z,7.07
2022-12-09T11:27:57.875Z,6.63
2022-12-09T11:30:29.032Z,6.40
2022-12-09T11:33:01.496Z,6.48
2022-12-09T11:35:40.908Z,6.61
2022-12-09T11:38:18.677Z,6.57
2022-12-09T11:41:00.655Z,6.46
2022-12-09T11:43:34.120Z,6.51
2022-12-09T11:46:03.311Z,6.39
2022-12-09T11:48:40.209Z,6.73
2022-12-09T11:51:21.635Z,7.08
2022-12-09T11:53:50.390Z,6.93
2022-12-09T11:56:21.348Z,7.34
2022-12-09T11:58:54.170Z,7.56
2022-12-09T12:01:25.821Z,7.38
2022-12-09T12:03:56.957Z,7.26
2022-12-09T12:06:32.879Z,7.22
2022-12-09T12:09:04.439Z,6.87
2022-12-09T12:11:35.326Z,7.27
2022-12-09T12:14:05.981Z,6.84
2022-12-09T12:16:39.962Z,6.60
2022-12-09T12:19:14.078Z,6.38
2022-12-09T12:21:55.128Z,6.42
2022-12-09T12:24:35.472Z,6.30
2022-12-09T12:27:13.846Z,6.16
2022-12-09T12:29:49.149Z,6.01
2022-12-09T12:32:38.728Z,6.17
2022-12-09T12:35:42.957Z,6.23
2022-12-09T12:38:27.437Z,6.47
2022-12-09T12:41:00.323Z,6.31
2022-12-09T12:44:06.785Z,6.21
2022-12-09T12:46:45.731Z,5.92
2022-12-09T12:49:23.383Z,5.93
2022-12-09T12:52:01.509Z,5.50
2022-12-09T12:54:45.312Z,5.69
2022-12-09T12:57:19.133Z,5.53
2022-12-09T12:59:53.202Z,5.21
2022-12-09T13:02:33.609Z,4.86
2022-12-09T13:05:04.714Z,4.71
2022-12-09T13:07:35.096Z,5.40
2022-12-09T13:10:09.137Z,5.24
2022-12-09T13:12:56.618Z,5.04
2022-12-09T13:15:32.247Z,5.29
2022-12-09T13:18:05.718Z,5.19
2022-12-09T13:20:40.777Z,5.20
2022-12-09T13:23:18.432Z,5.02
2022-12-09T13:25:54.019Z,5.21
2022-12-09T13:28:26.640Z,5.20
2022-12-09T13:30:59.103Z,5.09
2022-12-09T13:33:38.336Z,5.43
2022-12-09T13:36:10.063Z,5.50
2022-12-09T13:38:40.803Z,5.41
2022-12-09T13:41:55.445Z,5.36
2022-12-09T13:44:30.096Z,5.49
2022-12-09T13:47:16.435Z,5.78
2022-12-09T13:49:54.403Z,5.34
2022-12-09T13:52:41.185Z,5.55
2022-12-09T13:55:34.728Z,5.72
2022-12-09T13:58:51.054Z,5.70
2022-12-09T14:01:23.730Z,5.18
2022-12-09T14:03:58.770Z,4.98
2022-12-09T14:06:30.439Z,4.71
2022-12-09T14:08:59.513Z,5.15
2022-12-09T14:11:49.392Z,5.19
2022-12-09T14:14:46.942Z,5.34
2022-12-09T14:17:21.038Z,5.23
2022-12-09T14:19:55.687Z,5.18
2022-12-09T14:22:35.342Z,5.45
2022-12-09T14:25:50.995Z,5.39
2022-12-09T14:29:01.315Z,5.67
2022-12-09T14:32:00.245Z,5.46
2022-12-09T14:34:40.216Z,5.39
2022-12-09T14:37:21.737Z,5.51
2022-12-09T14:39:54.519Z,5.23
2022-12-09T14:42:29.768Z,5.36
2022-12-09T14:45:01.722Z,5.07
2022-12-09T14:47:34.957Z,4.98
2022-12-09T14:50:10.564Z,4.17
2022-12-09T14:52:39.077Z,3.89
2022-12-09T14:55:10.274Z,3.59
2022-12-09T14:57:41.729Z,3.37
2022-12-09T15:00:26.125Z,3.91
2022-12-09T15:03:30.763Z,3.44
2022-12-09T15:05:55.895Z,3.79
2022-12-09T15:08:32.843Z,3.62
2022-12-09T15:11:02.516Z,3.23
2022-12-09T15:13:34.676Z,3.39
2022-12-09T15:16:03.490Z,3.06
2022-12-09T15:18:33.792Z,3.47
2022-12-09T15:21:02.709Z,3.49
2022-12-09T15:23:32.769Z,3.59
2022-12-09T15:26:05.148Z,3.59
2022-12-09T15:28:34.571Z,3.35
2022-12-09T15:31:05.888Z,2.85
2022-12-09T15:33:41.594Z,3.42
2022-12-09T15:36:13.016Z,2.95
2022-12-09T15:38:43.866Z,3.19
2022-12-09T15:41:30.035Z,2.51
2022-12-09T15:44:00.877Z,2.60
2022-12-09T15:46:29.491Z,3.24
2022-12-09T15:49:00.831Z,3.13
2022-12-09T15:51:30.008Z,1.93
2022-12-09T15:54:00.244Z,2.01
2022-12-09T15:56:32.542Z,2.23
2022-12-09T15:59:05.860Z,2.22
2022-12-09T16:01:35.855Z,2.54
2022-12-09T16:04:06.935Z,2.95
2022-12-09T16:06:37.114Z,3.15
2022-12-09T16:09:12.821Z,2.17
2022-12-09T16:11:43.203Z,2.13
2022-12-09T16:14:12.222Z,1.20
2022-12-09T16:16:44.792Z,1.77
2022-12-09T16:19:36.261Z,1.85
2022-12-09T16:22:07.044Z,1.65
2022-12-09T16:25:12.579Z,1.78
2022-12-09T16:27:27.485Z,1.72
2022-12-09T16:29:57.795Z,2.52
2022-12-09T16:32:30.373Z,2.19
2022-12-09T16:35:01.521Z,2.15
2022-12-09T16:37:38.231Z,1.97
2022-12-09T16:40:50.431Z,2.40
2022-12-09T16:43:21.717Z,2.15
2022-12-09T16:45:51.027Z,2.03
2022-12-09T16:48:20.458Z,2.02
2022-12-09T16:50:51.439Z,2.36
2022-12-09T16:53:21.914Z,2.65
2022-12-09T16:55:51.706Z,2.51
2022-12-09T16:58:20.433Z,2.29
2022-12-09T17:00:49.106Z,2.87
2022-12-09T17:03:21.140Z,3.06
2022-12-09T17:05:50.889Z,2.87
2022-12-09T17:08:19.341Z,2.18
2022-12-09T17:10:47.813Z,2.04
2022-12-09T17:13:16.315Z,1.93
2022-12-09T17:15:44.562Z,1.82
2022-12-09T17:18:13.036Z,2.04
2022-12-09T17:20:41.398Z,1.83
2022-12-09T17:23:11.493Z,2.51
2022-12-09T17:25:39.654Z,2.38
2022-12-09T17:28:08.344Z,2.30
2022-12-09T17:30:38.566Z,2.74
2022-12-09T17:33:07.017Z,2.03
2022-12-09T17:35:38.624Z,2.23
2022-12-09T17:38:07.043Z,1.86
2022-12-09T17:40:37.095Z,1.79
2022-12-09T17:43:05.601Z,1.55
2022-12-09T17:45:37.424Z,1.58
2022-12-09T17:48:10.302Z,1.93
2022-12-09T17:50:38.739Z,1.61
2022-12-09T17:53:07.274Z,1.59
2022-12-09T17:55:35.426Z,1.86
2022-12-09T17:58:05.379Z,1.73
2022-12-09T18:00:34.391Z,1.40
2022-12-09T18:03:02.940Z,1.86
2022-12-09T18:05:31.058Z,1.77
2022-12-09T18:07:59.608Z,1.84
2022-12-09T18:10:27.896Z,1.92
2022-12-09T18:12:56.450Z,1.62
2022-12-09T18:15:27.381Z,2.09
2022-12-09T18:17:55.612Z,2.77
2022-12-09T18:20:23.696Z,1.94
2022-12-09T18:22:52.113Z,2.03
2022-12-09T18:25:20.287Z,1.57
2022-12-09T18:27:48.801Z,1.60
2022-12-09T18:30:17.086Z,1.72
2022-12-09T18:32:47.177Z,1.84
2022-12-09T18:35:15.350Z,1.66
2022-12-09T18:37:44.071Z,1.59
2022-12-09T18:40:13.642Z,1.87
2022-12-09T18:42:42.151Z,1.42
2022-12-09T18:45:11.129Z,1.34
2022-12-09T18:47:39.652Z,1.43
2022-12-09T18:50:10.579Z,1.64
2022-12-09T18:52:39.255Z,1.36
2022-12-09T18:55:08.237Z,1.66
2022-12-09T18:57:36.643Z,1.58
2022-12-09T19:00:06.690Z,1.35
2022-12-09T19:02:35.486Z,1.43
2022-12-09T19:05:03.883Z,1.31
2022-12-09T19:07:33.704Z,1.70
2022-12-09T19:10:01.981Z,1.31
2022-12-09T19:12:46.414Z,1.57
2022-12-09T19:15:16.102Z,1.71
2022-12-09T19:17:46.171Z,1.29
2022-12-09T19:20:14.574Z,1.47
2022-12-09T19:22:44.479Z,1.48
2022-12-09T19:25:12.768Z,1.53
2022-12-09T19:27:41.244Z,1.48
2022-12-09T19:30:10.416Z,1.82
2022-12-09T19:32:54.163Z,1.61
2022-12-09T19:35:22.237Z,1.59
2022-12-09T19:37:56.661Z,1.70
2022-12-09T19:40:27.872Z,1.34
2022-12-09T19:42:56.383Z,1.59
2022-12-09T19:45:24.500Z,1.76
2022-12-09T19:47:52.941Z,1.91
2022-12-09T19:50:22.713Z,1.98
2022-12-09T19:52:52.677Z,1.93
2022-12-09T19:55:20.965Z,1.92
2022-12-09T19:57:49.415Z,1.84
2022-12-09T20:00:18.476Z,1.75
2022-12-09T20:02:46.976Z,1.56
2022-12-09T20:05:15.244Z,1.76
2022-12-09T20:07:43.771Z,1.74
2022-12-09T20:10:13.536Z,2.15
2022-12-09T20:12:42.152Z,1.83
2022-12-09T20:15:11.028Z,1.81
2022-12-09T20:17:39.524Z,1.39
2022-12-09T20:20:10.819Z,1.50
2022-12-09T20:22:39.302Z,1.13
2022-12-09T20:25:08.417Z,1.61
2022-12-09T20:27:38.373Z,1.90
2022-12-09T20:30:07.847Z,1.85
2022-12-09T20:32:36.616Z,1.73
2022-12-09T20:35:11.166Z,1.72
2022-12-09T20:37:39.622Z,1.64
2022-12-09T20:40:09.704Z,1.83
2022-12-09T20:42:39.760Z,1.53
2022-12-09T20:45:09.303Z,1.99
2022-12-09T20:47:37.811Z,1.81
2022-12-09T20:50:07.301Z,2.16
2022-12-09T20:52:35.843Z,2.05
2022-12-09T20:55:04.222Z,2.22
2022-12-09T20:57:32.925Z,2.34
2022-12-09T21:00:02.515Z,2.52
2022-12-09T21:02:39.544Z,2.04
2022-12-09T21:05:09.664Z,2.51
2022-12-09T21:07:38.409Z,2.27
2022-12-09T21:10:07.626Z,2.56
2022-12-09T21:12:36.649Z,2.51
2022-12-09T21:15:07.333Z,2.93
2022-12-09T21:17:35.847Z,2.65
2022-12-09T21:20:04.604Z,2.62
2022-12-09T21:22:34.183Z,2.73
2022-12-09T21:25:02.683Z,2.87
2022-12-09T21:27:31.258Z,2.65
2022-12-09T21:29:59.354Z,2.49
2022-12-09T21:32:29.108Z,2.79
2022-12-09T21:34:58.270Z,2.29
2022-12-09T21:37:26.901Z,2.33
2022-12-09T21:39:55.269Z,2.43
2022-12-09T21:42:23.810Z,2.39
2022-12-09T21:44:51.957Z,2.37
2022-12-09T21:47:20.430Z,2.50
2022-12-09T21:49:49.868Z,2.80
2022-12-09T21:52:18.337Z,2.50
2022-12-09T21:54:55.030Z,2.98
2022-12-09T21:57:23.880Z,2.65
2022-12-09T21:59:52.108Z,2.66
2022-12-09T22:02:20.687Z,2.60
2022-12-09T22:04:50.299Z,2.86
2022-12-09T22:07:18.727Z,2.53
2022-12-09T22:09:46.987Z,2.64
2022-12-09T22:12:15.394Z,2.64
2022-12-09T22:14:43.543Z,2.73
2022-12-09T22:17:12.025Z,2.79
2022-12-09T22:19:40.092Z,2.49
2022-12-09T22:22:10.316Z,2.80
2022-12-09T22:24:38.515Z,2.59
2022-12-09T22:27:07.205Z,2.56
2022-12-09T22:29:36.766Z,2.72
2022-12-09T22:32:05.410Z,2.84
2022-12-09T22:34:33.530Z,2.86
2022-12-09T22:37:21.079Z,2.85
2022-12-09T22:39:53.297Z,3.10
2022-12-09T22:42:21.780Z,2.89
2022-12-09T22:44:49.955Z,2.82
2022-12-09T22:47:18.767Z,2.88
2022-12-09T22:49:47.037Z,2.92
2022-12-09T22:52:15.608Z,2.93
2022-12-09T22:54:43.862Z,2.83
2022-12-09T22:57:13.688Z,3.20
2022-12-09T22:59:43.227Z,2.96
2022-12-09T23:02:11.847Z,3.11
2022-12-09T23:04:40.038Z,3.03
2022-12-09T23:07:09.606Z,3.12
2022-12-09T23:09:38.868Z,3.03
2022-12-09T23:12:08.056Z,3.01
2022-12-09T23:14:37.915Z,3.24
2022-12-09T23:17:07.117Z,3.08
2022-12-09T23:19:35.394Z,3.17
2022-12-09T23:22:04.081Z,3.21
2022-12-09T23:24:32.184Z,3.31
2022-12-09T23:27:00.620Z,3.33
2022-12-09T23:29:28.691Z,3.35
2022-12-09T23:31:58.547Z,3.54
2022-12-09T23:34:27.080Z,3.19
2022-12-09T23:36:55.982Z,3.13
2022-12-09T23:39:24.368Z,3.22
2022-12-09T23:41:52.728Z,3.11
2022-12-09T23:44:20.949Z,3.09
2022-12-09T23:46:49.629Z,3.17
2022-12-09T23:49:19.256Z,3.37
2022-12-09T23:51:47.998Z,3.11
2022-12-09T23:54:18.401Z,3.42
2022-12-09T23:56:50.065Z,3.36
2022-12-09T23:59:19.713Z,3.58
